GABS/BKO METAR and TAF weather

Enter ICAO airport designator
Station Type Date Time Source
GABS METAR 2020/04/08 21:00 UTC NOAA

GABS 082100Z 08005KT CAVOK 30/03 Q1010 NOSIG


Station Type Date Time Source
GABS Decoded METAR 2020/04/08 21:00 UTC NOAA

Bamako / Senou, Mali (GABS) 12-32N 007-57W 381M
Apr 08, 2020 - 05:00 PM EDT / 2020.04.08 2100 UTC
Wind: from the E (080 degrees) at 6 MPH (5 KT):0
Visibility: greater than 7 mile(s):0
Temperature: 86 F (30 C)
Dew Point: 37 F (3 C)
Relative Humidity: 17%
Pressure (altimeter): 29.83 in. Hg (1010 hPa)
ob: GABS 082100Z 08005KT CAVOK 30/03 Q1010 NOSIG
cycle: 21

Station Type Date Time Source
GABS TAF 2020/04/08 18:30 UTC NOAA

TAF TAF GABS 081725Z 0818/0924 04010KT CAVOK

Example: see airport list